Time;durP1;ratioP1;P1;durP2;ratioP2;P2;SDS_P1;SDS_P2;PMS_P1;PMS_P2;Temp;Humidity;BMP_temperature;BMP_pressure;BME280_temperature;BME280_humidity;BME280_pressure;Samples;Min_cycle;Max_cycle;Signal;HPM_P1;HPM_P2
2020/12/23 00:00:21;;;;;;;7.80;6.27;;;7.10;99.90;;;;;;4874634;28;20217;-77
2020/12/23 00:02:44;;;;;;;8.43;7.33;;;6.60;99.90;;;;;;4869382;28;20221;-77
2020/12/23 00:05:08;;;;;;;8.37;7.33;;;6.50;99.90;;;;;;4857207;28;20234;-78
2020/12/23 00:07:30;;;;;;;7.30;6.50;;;6.60;99.90;;;;;;4874541;28;20231;-76
2020/12/23 00:09:52;;;;;;;9.53;7.20;;;6.50;99.90;;;;;;4875309;28;20246;-77
2020/12/23 00:12:17;;;;;;;8.57;7.27;;;6.60;99.90;;;;;;4875209;28;20239;-78
2020/12/23 00:14:39;;;;;;;8.03;7.23;;;6.60;99.90;;;;;;4874875;28;20243;-79
2020/12/23 00:17:02;;;;;;;7.83;7.07;;;6.70;99.90;;;;;;4875078;28;20606;-78
2020/12/23 00:19:24;;;;;;;8.20;7.40;;;6.70;99.90;;;;;;4874222;28;20267;-78
2020/12/23 00:21:46;;;;;;;10.70;8.67;;;6.70;99.90;;;;;;4875035;28;20182;-76
2020/12/23 00:24:08;;;;;;;9.87;7.87;;;6.80;99.90;;;;;;4857228;28;20645;-77
2020/12/23 00:26:30;;;;;;;8.20;7.33;;;7.00;99.90;;;;;;4874662;28;20294;-76
2020/12/23 00:28:52;;;;;;;6.40;5.80;;;7.00;99.90;;;;;;4874960;28;20185;-74
2020/12/23 00:31:16;;;;;;;8.03;6.80;;;7.10;99.90;;;;;;4856979;28;20240;-78
2020/12/23 00:33:39;;;;;;;8.73;6.50;;;7.10;99.90;;;;;;4874680;28;20197;-76
2020/12/23 00:36:01;;;;;;;9.07;7.33;;;7.10;99.90;;;;;;4874337;28;20190;-76
2020/12/23 00:38:23;;;;;;;10.03;9.00;;;7.10;99.90;;;;;;4874369;28;20219;-78
2020/12/23 00:40:45;;;;;;;7.67;6.90;;;7.30;99.90;;;;;;4875800;28;20189;-76
2020/12/23 00:43:07;;;;;;;7.10;6.40;;;7.20;99.90;;;;;;4875491;28;20683;-78
2020/12/23 00:45:29;;;;;;;7.13;6.43;;;7.20;99.90;;;;;;4875888;28;20728;-79
2020/12/23 00:47:51;;;;;;;6.57;5.93;;;7.20;99.90;;;;;;4858008;28;20656;-76
2020/12/23 00:50:14;;;;;;;6.77;6.07;;;7.30;99.90;;;;;;4875857;28;20243;-77
2020/12/23 00:52:36;;;;;;;6.77;6.07;;;7.20;99.90;;;;;;4876052;28;20235;-76
2020/12/23 00:54:58;;;;;;;6.07;5.47;;;7.30;99.90;;;;;;4858144;28;20198;-77
2020/12/23 00:57:26;;;;;;;6.47;5.83;;;7.40;99.90;;;;;;4877784;28;20254;-77
2020/12/23 00:59:48;;;;;;;7.90;7.17;;;7.30;99.90;;;;;;4892404;28;20220;-77
2020/12/23 01:02:10;;;;;;;8.13;6.70;;;7.30;99.90;;;;;;4873681;28;20221;-77
2020/12/23 01:04:32;;;;;;;6.23;5.60;;;7.40;99.90;;;;;;4875654;28;20186;-74
2020/12/23 01:06:55;;;;;;;6.10;5.53;;;7.40;99.90;;;;;;4875315;28;20185;-78
2020/12/23 01:09:17;;;;;;;6.13;5.53;;;7.40;99.90;;;;;;4875188;28;20189;-77
2020/12/23 01:11:39;;;;;;;5.90;5.30;;;7.50;99.90;;;;;;4874931;28;20193;-74
2020/12/23 01:14:01;;;;;;;5.97;5.40;;;7.40;99.90;;;;;;4875626;28;20181;-77
2020/12/23 01:16:24;;;;;;;5.97;5.37;;;7.40;99.90;;;;;;4856997;28;20340;-77
2020/12/23 01:18:46;;;;;;;6.73;6.13;;;7.40;99.90;;;;;;4875008;28;20231;-76
2020/12/23 01:21:08;;;;;;;5.33;4.93;;;7.50;99.90;;;;;;4874791;28;20235;-78
2020/12/23 01:23:31;;;;;;;6.13;5.60;;;7.50;99.90;;;;;;4875269;28;20294;-77
2020/12/23 01:25:55;;;;;;;5.60;5.10;;;7.50;99.90;;;;;;4875208;28;20593;-78
2020/12/23 01:28:17;;;;;;;5.37;4.47;;;7.50;99.90;;;;;;4874887;28;20217;-78
2020/12/23 01:30:39;;;;;;;5.53;5.03;;;7.50;99.90;;;;;;4857106;28;20601;-76
2020/12/23 01:33:02;;;;;;;5.93;5.00;;;7.50;99.90;;;;;;4874687;28;20193;-76
2020/12/23 01:35:24;;;;;;;5.83;5.33;;;7.50;99.90;;;;;;4874824;28;20190;-77
2020/12/23 01:37:46;;;;;;;5.80;5.20;;;7.50;99.90;;;;;;4875079;28;20243;-77
2020/12/23 01:40:09;;;;;;;5.47;5.07;;;7.50;99.90;;;;;;4873245;28;20232;-77
2020/12/23 01:42:33;;;;;;;6.30;5.70;;;7.60;99.90;;;;;;4875060;28;20185;-77
2020/12/23 01:44:55;;;;;;;5.83;5.27;;;7.60;99.90;;;;;;4874717;28;20190;-78
2020/12/23 01:47:22;;;;;;;5.37;4.93;;;7.60;99.90;;;;;;4875021;28;20190;-76
2020/12/23 01:49:44;;;;;;;5.47;4.60;;;7.60;99.90;;;;;;4871584;28;20223;-77
2020/12/23 01:52:06;;;;;;;4.70;4.33;;;7.60;99.90;;;;;;4874849;28;20238;-78
2020/12/23 01:54:30;;;;;;;4.63;4.23;;;7.70;99.90;;;;;;4874863;28;20231;-76
2020/12/23 01:56:57;;;;;;;4.93;4.53;;;7.70;99.90;;;;;;4875191;28;20190;-78
2020/12/23 01:59:19;;;;;;;5.30;4.80;;;7.70;99.90;;;;;;4875723;28;20271;-76
2020/12/23 02:01:46;;;;;;;5.27;4.80;;;7.70;99.90;;;;;;4854289;28;20233;-78
2020/12/23 02:04:08;;;;;;;5.83;5.33;;;7.70;99.90;;;;;;4875262;28;20239;-77
2020/12/23 02:06:32;;;;;;;5.40;4.90;;;7.70;99.90;;;;;;4875241;28;20232;-77
2020/12/23 02:08:56;;;;;;;6.57;5.27;;;7.70;99.90;;;;;;4874809;28;20721;-77
2020/12/23 02:11:19;;;;;;;5.50;4.87;;;7.70;99.90;;;;;;4874886;28;20732;-78
2020/12/23 02:13:44;;;;;;;6.03;5.47;;;7.70;99.90;;;;;;4875152;28;20193;-77
2020/12/23 02:16:06;;;;;;;5.93;5.43;;;7.70;99.90;;;;;;4875153;28;20217;-78
2020/12/23 02:18:31;;;;;;;5.50;5.00;;;7.70;99.90;;;;;;4874620;28;20189;-77
2020/12/23 02:20:53;;;;;;;5.73;5.23;;;7.70;99.90;;;;;;4857306;28;20554;-77
2020/12/23 02:23:16;;;;;;;6.83;6.23;;;7.70;99.90;;;;;;4856679;28;20186;-77
2020/12/23 02:25:38;;;;;;;6.63;6.03;;;7.70;99.90;;;;;;4877809;28;20243;-76
2020/12/23 02:28:00;;;;;;;9.23;5.43;;;7.70;99.90;;;;;;4859710;28;20292;-78
2020/12/23 02:30:22;;;;;;;6.77;6.17;;;7.70;99.90;;;;;;4877844;28;20683;-78
2020/12/23 02:32:44;;;;;;;5.77;5.20;;;7.60;99.90;;;;;;4878160;28;20342;-77
2020/12/23 02:35:08;;;;;;;5.83;5.23;;;7.60;99.90;;;;;;4859967;28;20178;-76
2020/12/23 02:37:30;;;;;;;6.10;5.50;;;7.60;99.90;;;;;;4877893;28;20177;-78
2020/12/23 02:39:55;;;;;;;6.70;6.00;;;7.60;99.90;;;;;;4876012;28;20209;-77
2020/12/23 02:42:18;;;;;;;6.70;6.00;;;7.70;99.90;;;;;;4877714;28;20185;-78
2020/12/23 02:44:40;;;;;;;6.47;5.83;;;7.60;99.90;;;;;;4877518;28;20243;-77
2020/12/23 02:47:03;;;;;;;6.30;5.70;;;7.70;99.90;;;;;;4877881;28;20185;-78
2020/12/23 02:49:26;;;;;;;6.97;6.27;;;7.60;99.90;;;;;;4872959;28;20193;-78
2020/12/23 02:51:48;;;;;;;6.90;6.30;;;7.70;99.90;;;;;;4877288;28;20708;-77
2020/12/23 02:54:10;;;;;;;6.80;6.20;;;7.80;99.90;;;;;;4859677;28;20288;-77
2020/12/23 02:56:33;;;;;;;6.47;5.87;;;7.80;99.90;;;;;;4877377;28;20529;-78
2020/12/23 02:58:55;;;;;;;7.00;6.40;;;7.70;99.90;;;;;;4877515;28;20212;-79
2020/12/23 03:01:17;;;;;;;7.73;7.03;;;7.80;99.90;;;;;;4856999;28;20244;-77
2020/12/23 03:03:39;;;;;;;7.13;5.67;;;7.80;99.90;;;;;;4877923;28;20713;-77
2020/12/23 03:06:01;;;;;;;6.73;6.13;;;7.80;99.90;;;;;;4860240;28;20526;-78
2020/12/23 03:08:23;;;;;;;7.13;6.43;;;7.80;99.90;;;;;;4877673;28;20788;-76
2020/12/23 03:10:45;;;;;;;8.93;6.13;;;7.90;99.90;;;;;;4878056;28;20613;-76
2020/12/23 03:13:08;;;;;;;6.97;6.37;;;7.90;99.90;;;;;;4877713;28;20755;-77
2020/12/23 03:15:30;;;;;;;6.33;5.77;;;7.90;99.90;;;;;;4877684;28;20251;-76
2020/12/23 03:17:52;;;;;;;6.33;5.73;;;7.90;99.90;;;;;;4877548;28;20307;-78
2020/12/23 03:20:14;;;;;;;5.87;5.37;;;7.90;99.90;;;;;;4876726;28;20213;-77
2020/12/23 03:22:36;;;;;;;5.43;4.93;;;7.90;99.90;;;;;;4859660;28;20300;-78
2020/12/23 03:24:59;;;;;;;6.17;5.57;;;7.90;99.90;;;;;;4877574;28;20251;-78
2020/12/23 03:27:21;;;;;;;5.93;5.37;;;7.90;99.90;;;;;;4876515;28;20298;-77
2020/12/23 03:29:44;;;;;;;6.40;5.80;;;7.90;99.90;;;;;;4859731;28;20198;-78
2020/12/23 03:32:06;;;;;;;5.73;5.23;;;7.90;99.90;;;;;;4876774;28;20185;-77
2020/12/23 03:34:28;;;;;;;5.37;4.90;;;7.90;99.90;;;;;;4877007;28;20597;-78
2020/12/23 03:36:50;;;;;;;5.47;4.97;;;7.90;99.90;;;;;;4876386;28;20215;-78
2020/12/23 03:39:12;;;;;;;5.70;5.10;;;7.80;99.90;;;;;;4858577;28;20186;-78
2020/12/23 03:41:34;;;;;;;5.23;4.83;;;7.90;99.90;;;;;;4876759;28;20239;-78
2020/12/23 03:43:56;;;;;;;6.17;5.57;;;7.90;99.90;;;;;;4876840;28;20247;-78
2020/12/23 03:46:19;;;;;;;5.93;5.43;;;7.90;99.90;;;;;;4858518;28;20186;-78
2020/12/23 03:48:41;;;;;;;5.80;5.30;;;8.10;99.90;;;;;;4871461;28;20243;-78
2020/12/23 03:51:04;;;;;;;6.40;5.27;;;8.00;99.90;;;;;;4858429;28;20734;-78
2020/12/23 03:53:26;;;;;;;5.93;5.37;;;8.00;99.90;;;;;;4853756;28;20236;-77
2020/12/23 03:55:49;;;;;;;5.97;5.37;;;8.00;99.90;;;;;;4876643;28;20239;-78
2020/12/23 03:58:11;;;;;;;6.30;5.70;;;7.90;99.90;;;;;;4880367;28;20181;-78
2020/12/23 04:00:33;;;;;;;7.40;6.43;;;8.00;99.90;;;;;;4881260;28;20205;-77
2020/12/23 04:02:56;;;;;;;7.90;7.13;;;8.00;99.90;;;;;;4882498;28;20287;-78
2020/12/23 04:05:18;;;;;;;8.10;7.07;;;8.00;99.90;;;;;;4877096;28;20605;-77
2020/12/23 04:07:40;;;;;;;7.33;6.40;;;8.00;99.90;;;;;;4876776;28;20189;-77
2020/12/23 04:10:05;;;;;;;6.33;5.73;;;8.00;99.90;;;;;;4877081;28;20201;-77
2020/12/23 04:12:27;;;;;;;5.97;5.37;;;8.10;99.90;;;;;;4872502;28;20255;-76
2020/12/23 04:14:49;;;;;;;5.40;4.90;;;8.00;99.90;;;;;;4876837;28;20247;-78
2020/12/23 04:17:12;;;;;;;5.80;5.30;;;8.10;99.90;;;;;;4876151;28;20255;-76
2020/12/23 04:19:35;;;;;;;5.37;4.73;;;8.10;99.90;;;;;;4869986;28;20216;-77
2020/12/23 04:21:57;;;;;;;5.50;5.00;;;8.10;99.90;;;;;;4875634;28;20182;-77
2020/12/23 04:24:19;;;;;;;6.03;5.47;;;8.10;99.90;;;;;;4875842;28;20610;-77
2020/12/23 04:26:41;;;;;;;5.80;5.30;;;8.20;99.90;;;;;;4875666;28;20760;-78
2020/12/23 04:29:03;;;;;;;5.50;5.00;;;8.20;99.90;;;;;;4876153;28;20182;-78
2020/12/23 04:31:25;;;;;;;4.77;4.27;;;8.20;99.90;;;;;;4872484;28;20262;-77
2020/12/23 04:33:47;;;;;;;5.20;4.80;;;8.20;99.90;;;;;;4857490;28;20604;-78
2020/12/23 04:36:10;;;;;;;4.77;4.37;;;8.20;99.90;;;;;;4876009;28;20185;-78
2020/12/23 04:38:32;;;;;;;5.60;5.10;;;8.20;99.90;;;;;;4875366;28;20231;-77
2020/12/23 04:40:55;;;;;;;6.13;5.53;;;8.30;99.90;;;;;;4875912;28;20559;-77
2020/12/23 04:43:19;;;;;;;6.27;5.73;;;8.30;99.90;;;;;;4875751;28;20239;-78
2020/12/23 04:45:41;;;;;;;8.37;7.60;;;8.30;99.90;;;;;;4875395;28;20189;-78
2020/12/23 04:48:04;;;;;;;6.83;6.23;;;8.30;99.90;;;;;;4857401;28;20190;-78
2020/12/23 04:50:30;;;;;;;7.30;6.03;;;8.30;99.90;;;;;;4870803;28;20255;-79
2020/12/23 04:52:53;;;;;;;7.20;6.43;;;8.30;99.90;;;;;;4875779;28;20231;-78
2020/12/23 04:55:16;;;;;;;6.90;6.30;;;8.40;99.90;;;;;;4875452;28;20189;-77
2020/12/23 04:57:40;;;;;;;7.23;6.63;;;8.30;99.90;;;;;;4875288;28;20231;-78
2020/12/23 05:00:05;;;;;;;7.53;6.83;;;8.40;99.90;;;;;;4875061;28;20314;-78
2020/12/23 05:02:27;;;;;;;6.83;6.23;;;8.30;99.90;;;;;;4866903;28;20267;-78
2020/12/23 05:04:49;;;;;;;7.20;6.50;;;8.30;99.90;;;;;;4857396;28;20296;-78
2020/12/23 05:07:11;;;;;;;6.17;5.60;;;8.30;99.90;;;;;;4857097;28;20263;-78
2020/12/23 05:09:34;;;;;;;6.47;5.87;;;8.30;99.90;;;;;;4875978;28;20189;-79
2020/12/23 05:11:58;;;;;;;7.93;7.10;;;8.20;99.90;;;;;;4875963;28;20196;-79
2020/12/23 05:14:21;;;;;;;6.60;5.93;;;8.20;99.90;;;;;;4875252;28;20181;-79
2020/12/23 05:16:43;;;;;;;5.90;5.30;;;8.20;99.90;;;;;;4875693;28;20254;-78
2020/12/23 05:19:06;;;;;;;4.60;4.07;;;8.20;99.90;;;;;;4875425;28;20177;-78
2020/12/23 05:21:29;;;;;;;4.70;4.30;;;8.20;99.90;;;;;;4876512;28;20201;-78
2020/12/23 05:23:52;;;;;;;5.37;4.90;;;8.10;99.90;;;;;;4858027;28;20185;-78
2020/12/23 05:26:16;;;;;;;4.83;4.33;;;8.10;99.90;;;;;;4875070;28;20671;-78
2020/12/23 05:28:39;;;;;;;7.60;6.93;;;8.10;99.90;;;;;;4857615;28;20206;-79
2020/12/23 05:31:03;;;;;;;5.67;5.17;;;8.10;99.90;;;;;;4875973;28;20186;-78
2020/12/23 05:33:25;;;;;;;6.30;5.80;;;8.10;99.90;;;;;;4867555;28;20659;-78
2020/12/23 05:35:47;;;;;;;5.43;4.90;;;8.10;99.90;;;;;;4875414;28;20190;-78
2020/12/23 05:38:09;;;;;;;5.03;4.63;;;8.10;99.90;;;;;;4875160;28;20247;-78
2020/12/23 05:40:31;;;;;;;4.67;4.23;;;8.20;99.90;;;;;;4875450;28;20282;-79
2020/12/23 05:42:56;;;;;;;4.93;4.53;;;8.20;99.90;;;;;;4875558;28;20193;-78
2020/12/23 05:45:19;;;;;;;5.10;4.60;;;8.10;99.90;;;;;;4875178;28;20235;-79
2020/12/23 05:47:41;;;;;;;4.67;4.27;;;8.20;99.90;;;;;;4875560;28;20235;-78
2020/12/23 05:50:09;;;;;;;5.43;5.03;;;8.20;99.90;;;;;;4875311;28;20243;-78
2020/12/23 05:52:33;;;;;;;6.07;5.47;;;8.20;99.90;;;;;;4868652;28;20215;-80
2020/12/23 05:54:55;;;;;;;7.13;6.43;;;8.20;99.90;;;;;;4875192;28;20255;-79
2020/12/23 05:57:17;;;;;;;5.83;5.30;;;8.20;99.90;;;;;;4875426;28;20239;-79
2020/12/23 05:59:41;;;;;;;5.03;4.63;;;8.20;99.90;;;;;;4877372;28;20259;-79
2020/12/23 06:02:05;;;;;;;5.37;4.87;;;8.20;99.90;;;;;;4875988;28;20597;-78
2020/12/23 06:04:28;;;;;;;5.03;4.63;;;8.20;99.90;;;;;;4871459;28;20250;-79
2020/12/23 06:06:53;;;;;;;5.83;5.33;;;8.20;99.90;;;;;;4879237;28;20216;-78
2020/12/23 06:09:17;;;;;;;5.87;5.30;;;8.20;99.90;;;;;;4860728;28;20749;-78
2020/12/23 06:11:40;;;;;;;5.93;5.37;;;8.30;99.90;;;;;;4879314;28;20198;-78
2020/12/23 06:14:16;;;;;;;7.13;6.57;;;8.30;99.90;;;;;;4878908;28;20197;-77
2020/12/23 06:16:41;;;;;;;6.27;5.70;;;8.30;99.90;;;;;;4873023;28;20263;-78
2020/12/23 06:19:05;;;;;;;5.73;5.23;;;8.30;99.90;;;;;;4878451;28;20186;-78
2020/12/23 06:21:28;;;;;;;6.07;5.47;;;8.30;99.90;;;;;;4861142;28;20260;-77
2020/12/23 06:24:01;;;;;;;7.30;6.57;;;8.20;99.90;;;;;;4878675;28;20235;-78
2020/12/23 06:26:29;;;;;;;8.17;7.43;;;8.30;99.90;;;;;;4878160;28;20225;-76
2020/12/23 06:28:57;;;;;;;10.43;9.00;;;8.30;99.90;;;;;;4878878;28;20212;-78
2020/12/23 06:31:19;;;;;;;11.27;10.10;;;8.20;99.90;;;;;;4878514;28;20189;-78
2020/12/23 06:33:42;;;;;;;10.63;9.63;;;8.20;99.90;;;;;;4860246;28;20194;-78
2020/12/23 06:36:11;;;;;;;11.00;10.00;;;8.20;99.90;;;;;;4878422;28;20193;-78
2020/12/23 06:38:33;;;;;;;11.20;10.10;;;8.30;99.90;;;;;;4871359;28;20655;-78
2020/12/23 06:40:58;;;;;;;13.13;10.67;;;8.30;99.90;;;;;;4878514;28;20617;-77
2020/12/23 06:43:53;;;;;;;13.13;11.90;;;8.30;99.90;;;;;;4878433;28;20205;-77
2020/12/23 06:46:15;;;;;;;13.53;12.20;;;8.30;99.90;;;;;;4860303;28;20198;-76
2020/12/23 06:48:37;;;;;;;11.53;10.47;;;8.30;99.90;;;;;;4878351;28;20242;-77
2020/12/23 06:51:00;;;;;;;11.97;10.70;;;8.30;99.90;;;;;;4878154;28;20724;-77
2020/12/23 06:53:36;;;;;;;17.10;14.77;;;8.30;99.90;;;;;;4859670;28;20189;-75
2020/12/23 06:55:58;;;;;;;15.30;13.10;;;8.30;99.90;;;;;;4878278;28;20530;-77
2020/12/23 06:58:39;;;;;;;12.33;9.67;;;8.40;99.90;;;;;;4878086;28;20231;-76
2020/12/23 07:01:16;;;;;;;9.13;8.20;;;8.40;99.90;;;;;;4874403;28;20216;-77
2020/12/23 07:03:38;;;;;;;8.27;7.53;;;8.40;99.90;;;;;;4859704;28;20243;-77
2020/12/23 07:06:01;;;;;;;8.73;7.90;;;8.30;99.90;;;;;;4877269;28;20650;-77
2020/12/23 07:08:29;;;;;;;9.53;8.50;;;8.40;99.90;;;;;;4877711;28;20259;-77
2020/12/23 07:10:51;;;;;;;7.93;7.17;;;8.40;99.90;;;;;;4859839;28;20219;-77
2020/12/23 07:13:16;;;;;;;8.27;7.47;;;8.40;99.90;;;;;;4878054;28;20235;-77
2020/12/23 07:15:39;;;;;;;9.13;7.87;;;8.40;99.90;;;;;;4878177;28;20205;-77
2020/12/23 07:18:04;;;;;;;7.90;7.10;;;8.40;99.90;;;;;;4887239;28;20193;-76
2020/12/23 07:20:27;;;;;;;9.27;8.37;;;8.50;99.90;;;;;;4885609;28;20266;-76
2020/12/23 07:22:51;;;;;;;10.67;9.53;;;8.50;99.90;;;;;;4877781;28;20185;-77
2020/12/23 07:25:18;;;;;;;12.87;10.83;;;8.50;99.90;;;;;;4877434;28;20580;-77
2020/12/23 07:27:41;;;;;;;13.00;10.80;;;8.50;99.90;;;;;;4877396;28;20229;-76
2020/12/23 07:30:07;;;;;;;12.10;10.80;;;8.50;99.90;;;;;;4859161;28;20749;-77
2020/12/23 07:32:29;;;;;;;11.10;9.93;;;8.50;99.90;;;;;;4870404;28;20610;-77
2020/12/23 07:34:52;;;;;;;12.20;10.93;;;8.50;99.90;;;;;;4877526;28;20701;-77
2020/12/23 07:37:14;;;;;;;13.03;11.73;;;8.50;99.90;;;;;;4859401;28;20186;-77
2020/12/23 07:39:37;;;;;;;11.63;10.50;;;8.50;99.90;;;;;;4877120;28;20239;-77
2020/12/23 07:42:03;;;;;;;10.97;9.83;;;8.50;99.90;;;;;;4876941;28;20213;-78
2020/12/23 07:44:26;;;;;;;12.77;11.50;;;8.50;99.90;;;;;;4872696;28;20561;-76
2020/12/23 07:46:48;;;;;;;12.73;11.53;;;8.60;99.90;;;;;;4876975;28;20193;-77
2020/12/23 07:49:10;;;;;;;8.57;7.67;;;8.70;99.90;;;;;;4877116;28;20185;-77
2020/12/23 07:51:36;;;;;;;8.40;7.57;;;8.70;99.90;;;;;;4858870;28;20636;-77
2020/12/23 07:53:58;;;;;;;8.57;7.73;;;8.70;99.90;;;;;;4876733;28;20220;-78
2020/12/23 07:56:21;;;;;;;9.17;8.27;;;8.70;99.90;;;;;;4876859;28;20287;-77
2020/12/23 07:58:44;;;;;;;6.53;5.90;;;8.80;99.90;;;;;;4876787;28;20510;-77
2020/12/23 08:01:08;;;;;;;6.07;5.47;;;8.80;99.90;;;;;;4874345;28;20270;-77
2020/12/23 08:03:32;;;;;;;5.67;5.17;;;8.80;99.90;;;;;;4877433;28;20170;-77
2020/12/23 08:06:05;;;;;;;5.53;5.00;;;8.90;99.90;;;;;;4877437;28;20243;-77
2020/12/23 08:08:27;;;;;;;5.27;4.73;;;8.90;99.90;;;;;;4876025;28;20243;-77
2020/12/23 08:10:49;;;;;;;5.40;4.90;;;8.90;99.90;;;;;;4877404;28;20185;-77
2020/12/23 08:13:25;;;;;;;4.27;3.87;;;8.90;99.90;;;;;;4876510;28;20193;-77
2020/12/23 08:15:47;;;;;;;4.20;3.80;;;8.90;99.90;;;;;;4891063;28;20205;-77
2020/12/23 08:18:12;;;;;;;4.00;3.60;;;9.00;99.90;;;;;;4857803;28;20740;-77
2020/12/23 08:20:35;;;;;;;4.10;3.80;;;8.90;99.90;;;;;;4858114;28;20255;-77
2020/12/23 08:22:58;;;;;;;4.73;4.33;;;8.90;99.90;;;;;;4876359;28;20189;-77
2020/12/23 08:25:22;;;;;;;5.33;4.93;;;9.00;99.90;;;;;;4876476;28;20189;-77
2020/12/23 08:27:46;;;;;;;4.73;4.30;;;9.00;99.90;;;;;;4876345;28;20266;-76
2020/12/23 08:30:12;;;;;;;5.50;4.70;;;9.00;99.90;;;;;;4853907;28;20202;-76
2020/12/23 08:32:43;;;;;;;5.33;4.83;;;9.00;99.90;;;;;;4876239;28;20243;-77
2020/12/23 08:35:06;;;;;;;5.20;4.80;;;9.00;99.90;;;;;;4875794;28;20189;-78
2020/12/23 08:37:29;;;;;;;4.67;4.27;;;9.00;99.90;;;;;;4857554;28;20631;-78
2020/12/23 08:39:56;;;;;;;6.27;5.53;;;9.00;99.90;;;;;;4858986;28;20194;-77
2020/12/23 08:42:18;;;;;;;8.13;7.40;;;9.00;99.90;;;;;;4857749;28;20226;-78
2020/12/23 08:44:40;;;;;;;8.90;8.00;;;9.00;99.90;;;;;;4875475;28;20189;-78
2020/12/23 08:47:03;;;;;;;9.37;8.43;;;9.00;99.90;;;;;;4876122;28;20582;-77
2020/12/23 08:49:27;;;;;;;10.37;9.33;;;9.00;99.90;;;;;;4868230;28;20250;-78
2020/12/23 08:51:49;;;;;;;9.07;8.20;;;9.10;99.90;;;;;;4876239;28;20198;-78
2020/12/23 08:54:15;;;;;;;7.40;6.70;;;9.10;99.90;;;;;;4875651;28;20197;-77
2020/12/23 08:56:37;;;;;;;7.40;6.70;;;9.10;99.90;;;;;;4874055;28;20229;-77
2020/12/23 08:59:00;;;;;;;6.23;5.63;;;9.10;99.90;;;;;;4874338;28;20190;-78
2020/12/23 09:01:23;;;;;;;9.97;7.40;;;9.10;99.90;;;;;;4872996;28;20635;-78
2020/12/23 09:03:57;;;;;;;14.30;9.07;;;9.10;99.90;;;;;;4875722;28;20243;-77
2020/12/23 09:06:19;;;;;;;11.87;8.53;;;9.10;99.90;;;;;;4875376;28;20178;-78
2020/12/23 09:08:44;;;;;;;8.03;7.23;;;9.20;99.90;;;;;;4874097;28;20201;-77
2020/12/23 09:11:06;;;;;;;6.77;6.10;;;9.20;99.90;;;;;;4875699;28;20189;-75
2020/12/23 09:13:32;;;;;;;6.03;5.53;;;9.20;99.90;;;;;;4876064;28;20186;-76
2020/12/23 09:15:54;;;;;;;6.73;6.20;;;9.30;99.90;;;;;;4854246;28;20678;-77
2020/12/23 09:18:16;;;;;;;6.03;5.53;;;9.20;99.90;;;;;;4865213;28;20712;-77
2020/12/23 09:20:41;;;;;;;5.73;5.23;;;9.30;99.90;;;;;;4874823;28;20557;-76
2020/12/23 09:23:03;;;;;;;6.10;5.50;;;9.30;99.90;;;;;;4875560;28;20179;-76
2020/12/23 09:25:26;;;;;;;5.77;5.27;;;9.30;99.90;;;;;;4873854;28;20254;-76
2020/12/23 09:27:50;;;;;;;6.00;5.43;;;9.30;99.90;;;;;;4874714;28;20289;-76
2020/12/23 09:30:12;;;;;;;6.53;5.90;;;9.40;99.90;;;;;;4874402;28;20240;-76
2020/12/23 09:32:35;;;;;;;6.10;5.60;;;9.30;99.90;;;;;;4875813;28;20207;-76
2020/12/23 09:35:12;;;;;;;5.90;5.43;;;9.40;99.90;;;;;;4878123;28;20185;-76
2020/12/23 09:37:35;;;;;;;5.87;5.30;;;9.40;99.90;;;;;;4878070;28;20199;-77
2020/12/23 09:39:57;;;;;;;5.70;5.27;;;9.50;99.90;;;;;;4879377;28;20189;-76
2020/12/23 09:42:19;;;;;;;8.93;8.07;;;9.50;99.90;;;;;;4879291;28;20205;-77
2020/12/23 09:44:41;;;;;;;6.93;6.33;;;9.60;99.90;;;;;;4859988;28;20194;-77
2020/12/23 09:47:04;;;;;;;5.07;4.67;;;9.60;99.90;;;;;;4852624;28;20210;-74
2020/12/23 09:49:26;;;;;;;4.77;4.37;;;9.70;99.90;;;;;;4869518;28;20182;-75
2020/12/23 09:51:50;;;;;;;3.33;3.10;;;9.70;99.90;;;;;;4859962;28;20202;-75
2020/12/23 09:54:13;;;;;;;2.93;2.73;;;9.70;99.90;;;;;;4860552;28;20197;-76
2020/12/23 09:56:35;;;;;;;2.33;2.17;;;9.70;99.90;;;;;;4878799;28;20643;-75
2020/12/23 09:58:57;;;;;;;2.17;2.07;;;9.70;99.90;;;;;;4878912;28;20196;-77
2020/12/23 10:01:19;;;;;;;2.47;2.27;;;9.80;99.90;;;;;;4866581;28;20759;-78
2020/12/23 10:03:41;;;;;;;2.10;1.93;;;9.70;99.90;;;;;;4877146;28;20667;-76
2020/12/23 10:06:03;;;;;;;2.83;2.63;;;9.80;99.90;;;;;;4877572;28;20680;-77
2020/12/23 10:08:26;;;;;;;2.53;2.37;;;9.80;99.90;;;;;;4860404;28;20280;-74
2020/12/23 10:10:49;;;;;;;3.07;2.87;;;9.80;99.90;;;;;;4877568;28;20247;-76
2020/12/23 10:13:11;;;;;;;2.97;2.77;;;9.80;99.30;;;;;;4877954;28;20189;-76
2020/12/23 10:15:33;;;;;;;3.37;3.13;;;9.80;97.70;;;;;;4878303;28;20727;-76
2020/12/23 10:17:55;;;;;;;3.37;3.10;;;9.80;97.00;;;;;;4878117;28;20186;-76
2020/12/23 10:20:17;;;;;;;3.53;3.23;;;9.80;97.30;;;;;;4877169;28;20189;-75
2020/12/23 10:22:40;;;;;;;4.50;4.10;;;9.90;95.60;;;;;;4876959;28;20217;-74
2020/12/23 10:25:02;;;;;;;3.60;3.30;;;9.80;95.60;;;;;;4877784;28;20189;-75
2020/12/23 10:27:27;;;;;;;3.60;3.30;;;9.80;93.50;;;;;;4877636;28;20350;-74
2020/12/23 10:29:49;;;;;;;3.60;3.37;;;9.70;94.90;;;;;;4859439;28;20599;-74
2020/12/23 10:32:11;;;;;;;4.10;3.80;;;9.80;96.90;;;;;;4878814;28;20247;-76
2020/12/23 10:34:34;;;;;;;4.80;4.40;;;9.70;99.20;;;;;;4888606;28;20185;-75
2020/12/23 10:36:56;;;;;;;4.30;3.90;;;9.80;99.60;;;;;;4882523;28;20186;-74
2020/12/23 10:39:19;;;;;;;5.33;4.73;;;9.80;97.60;;;;;;4876481;28;20544;-75
2020/12/23 10:41:41;;;;;;;4.57;4.10;;;9.70;96.00;;;;;;4880234;28;20592;-75
2020/12/23 10:44:05;;;;;;;4.30;3.90;;;9.70;96.20;;;;;;4876599;28;20795;-77
2020/12/23 10:46:27;;;;;;;5.30;4.80;;;9.70;97.60;;;;;;4878110;28;20728;-76
2020/12/23 10:48:49;;;;;;;5.40;4.87;;;9.60;97.50;;;;;;4860335;28;20639;-74
2020/12/23 10:51:11;;;;;;;5.90;5.37;;;9.60;98.80;;;;;;4856665;28;20246;-76
2020/12/23 10:53:33;;;;;;;5.87;5.37;;;9.60;99.70;;;;;;4877061;28;20203;-75
2020/12/23 10:55:55;;;;;;;6.63;6.00;;;9.60;99.90;;;;;;4877300;28;20193;-74
2020/12/23 10:58:17;;;;;;;6.90;6.20;;;9.60;99.90;;;;;;4878354;28;20185;-76
2020/12/23 11:00:41;;;;;;;6.23;5.70;;;9.60;99.90;;;;;;4874788;28;20262;-76
2020/12/23 11:03:03;;;;;;;6.17;5.57;;;9.60;99.90;;;;;;4876665;28;20229;-75
2020/12/23 11:05:25;;;;;;;6.63;6.03;;;10.30;99.90;;;;;;4876844;28;20189;-75
2020/12/23 11:07:47;;;;;;;6.73;6.13;;;9.60;99.90;;;;;;4877126;28;20182;-75
2020/12/23 11:10:10;;;;;;;7.90;7.13;;;9.60;99.90;;;;;;4877547;28;20612;-75
2020/12/23 11:12:32;;;;;;;7.17;6.53;;;9.60;99.90;;;;;;4877101;28;20655;-75
2020/12/23 11:14:54;;;;;;;6.93;6.33;;;9.60;99.90;;;;;;4876518;28;20698;-75
2020/12/23 11:17:17;;;;;;;7.03;6.40;;;9.60;99.90;;;;;;4876564;28;20235;-75
2020/12/23 11:19:39;;;;;;;6.30;5.80;;;9.60;99.90;;;;;;4877717;28;20243;-76
2020/12/23 11:22:01;;;;;;;7.47;6.80;;;9.70;99.90;;;;;;4876887;28;20205;-76
2020/12/23 11:24:23;;;;;;;6.83;6.23;;;9.70;99.50;;;;;;4859509;28;20233;-75
2020/12/23 11:26:45;;;;;;;6.33;5.80;;;9.70;99.90;;;;;;4857664;28;20234;-76
2020/12/23 11:29:07;;;;;;;6.20;5.70;;;9.60;99.90;;;;;;4876384;28;20185;-75
2020/12/23 11:31:30;;;;;;;5.77;5.27;;;9.60;99.90;;;;;;4876387;28;20186;-75
2020/12/23 11:33:53;;;;;;;5.67;5.17;;;9.70;99.90;;;;;;4875480;28;20655;-75
2020/12/23 11:36:16;;;;;;;4.80;4.40;;;9.70;99.90;;;;;;4858504;28;20221;-75
2020/12/23 11:38:38;;;;;;;5.50;5.03;;;9.70;99.90;;;;;;4875256;28;20242;-76
2020/12/23 11:41:00;;;;;;;5.20;4.80;;;9.70;99.90;;;;;;4839408;28;20186;-75
2020/12/23 11:43:22;;;;;;;5.63;5.13;;;9.70;99.90;;;;;;4875353;28;20613;-76
2020/12/23 11:45:44;;;;;;;6.53;5.90;;;9.70;99.90;;;;;;4858560;28;20252;-75
2020/12/23 11:48:07;;;;;;;7.73;6.87;;;9.70;99.90;;;;;;4875823;28;20185;-75
2020/12/23 11:50:30;;;;;;;10.03;8.33;;;9.70;99.90;;;;;;4876816;28;20647;-75
2020/12/23 11:52:52;;;;;;;9.50;7.17;;;9.80;99.90;;;;;;4876109;28;20193;-75
2020/12/23 11:55:18;;;;;;;6.23;5.60;;;9.80;99.90;;;;;;4875432;28;20181;-75
2020/12/23 11:57:40;;;;;;;8.33;6.20;;;9.90;99.90;;;;;;4870689;28;20235;-75
2020/12/23 12:00:02;;;;;;;6.97;5.97;;;9.90;97.40;;;;;;4874776;28;20232;-75
2020/12/23 12:02:34;;;;;;;5.50;5.00;;;9.90;96.20;;;;;;4867651;28;20290;-75
2020/12/23 12:04:56;;;;;;;6.43;5.83;;;9.90;94.70;;;;;;4875061;28;20189;-76
2020/12/23 12:07:19;;;;;;;5.73;5.13;;;9.90;94.60;;;;;;4876037;28;20243;-75
2020/12/23 12:09:41;;;;;;;7.37;6.70;;;9.80;95.30;;;;;;4875170;28;20197;-74
2020/12/23 12:12:03;;;;;;;8.00;7.30;;;9.70;95.70;;;;;;4875690;28;20186;-75
2020/12/23 12:14:25;;;;;;;8.70;7.87;;;9.80;96.70;;;;;;4873480;28;20247;-74
2020/12/23 12:16:48;;;;;;;9.20;8.30;;;9.70;97.70;;;;;;4875823;28;20643;-74
2020/12/23 12:19:10;;;;;;;9.57;8.67;;;9.70;98.80;;;;;;4875654;28;20243;-74
2020/12/23 12:21:32;;;;;;;8.63;7.83;;;9.60;99.90;;;;;;4874347;28;20193;-74
2020/12/23 12:23:55;;;;;;;9.67;8.77;;;9.60;99.90;;;;;;4874891;28;20204;-75
2020/12/23 12:26:17;;;;;;;10.57;9.57;;;9.60;99.90;;;;;;4874811;28;20185;-75
2020/12/23 12:28:39;;;;;;;9.43;8.37;;;9.60;99.90;;;;;;4875772;28;20243;-75
2020/12/23 12:31:02;;;;;;;9.33;8.43;;;9.60;99.90;;;;;;4840972;28;20608;-75
2020/12/23 12:33:24;;;;;;;8.43;7.63;;;9.60;99.90;;;;;;4857598;28;20256;-74